createdAt,value
2022-07-31T00:08:42.752Z,36.20
2022-07-31T00:11:14.844Z,36.40
2022-07-31T00:13:58.030Z,36.50
2022-07-31T00:19:29.920Z,37.00
2022-07-31T00:22:02.896Z,37.10
2022-07-31T00:24:37.747Z,37.00
2022-07-31T00:27:12.724Z,36.80
2022-07-31T00:35:41.355Z,36.40
2022-07-31T00:38:26.878Z,36.20
2022-07-31T00:44:26.212Z,36.20
2022-07-31T00:46:59.633Z,36.20
2022-07-31T00:49:33.248Z,36.10
2022-07-31T00:58:28.929Z,36.00
2022-07-31T01:01:02.675Z,35.90
2022-07-31T01:09:29.036Z,35.40
2022-07-31T01:12:09.453Z,35.60
2022-07-31T01:14:54.621Z,36.00
2022-07-31T01:17:30.796Z,36.50
2022-07-31T01:20:11.655Z,36.80
2022-07-31T01:23:10.106Z,37.20
2022-07-31T01:25:50.688Z,37.80
2022-07-31T01:28:36.736Z,38.10
2022-07-31T01:31:26.558Z,38.00
2022-07-31T01:34:07.986Z,38.20
2022-07-31T01:36:59.551Z,38.30
2022-07-31T01:39:35.324Z,38.30
2022-07-31T01:42:22.305Z,38.10
2022-07-31T01:45:02.364Z,38.20
2022-07-31T01:48:17.472Z,37.70
2022-07-31T01:51:10.085Z,37.50
2022-07-31T01:56:20.629Z,37.40
2022-07-31T01:58:53.867Z,37.00
2022-07-31T02:01:28.678Z,36.60
2022-07-31T02:04:10.455Z,36.00
2022-07-31T02:06:47.084Z,35.90
2022-07-31T02:09:57.785Z,35.30
2022-07-31T02:12:34.567Z,34.60
2022-07-31T02:15:07.727Z,34.00
2022-07-31T02:17:39.822Z,33.50
2022-07-31T02:20:14.032Z,33.20
2022-07-31T02:22:48.254Z,32.90
2022-07-31T02:25:19.707Z,32.70
2022-07-31T02:27:55.520Z,32.60
2022-07-31T02:30:39.106Z,32.40
2022-07-31T02:33:14.846Z,32.20
2022-07-31T02:35:48.746Z,32.00
2022-07-31T02:38:26.051Z,31.80
2022-07-31T02:41:01.588Z,31.70
2022-07-31T02:43:34.294Z,31.60
2022-07-31T02:46:07.295Z,31.40
2022-07-31T02:48:40.109Z,31.20
2022-07-31T02:51:11.546Z,31.20
2022-07-31T02:53:47.880Z,31.00
2022-07-31T02:56:21.941Z,30.80
2022-07-31T02:58:55.327Z,30.70
2022-07-31T03:01:27.765Z,30.60
2022-07-31T03:03:59.964Z,30.40
2022-07-31T03:06:32.552Z,30.20
2022-07-31T03:09:06.786Z,30.10
2022-07-31T03:11:38.119Z,29.90
2022-07-31T03:14:11.969Z,29.80
2022-07-31T03:16:54.295Z,29.70
2022-07-31T03:19:30.357Z,29.70
2022-07-31T03:22:04.674Z,29.60
2022-07-31T03:24:40.068Z,29.50
2022-07-31T03:27:11.817Z,29.30
2022-07-31T03:29:45.719Z,29.20
2022-07-31T03:32:19.305Z,29.10
2022-07-31T03:34:50.995Z,28.90
2022-07-31T03:37:22.359Z,28.70
2022-07-31T03:39:55.877Z,28.60
2022-07-31T03:42:29.150Z,28.50
2022-07-31T03:45:00.892Z,28.30
2022-07-31T04:03:52.190Z,27.50
2022-07-31T04:06:25.308Z,27.40
2022-07-31T04:08:56.941Z,27.30
2022-07-31T04:11:33.349Z,27.20
2022-07-31T04:14:06.678Z,27.10
2022-07-31T04:16:43.683Z,27.00
2022-07-31T04:25:42.963Z,26.70
2022-07-31T04:28:15.399Z,26.60
2022-07-31T04:30:49.681Z,26.60
2022-07-31T04:36:30.188Z,26.40
2022-07-31T04:39:06.725Z,26.30
2022-07-31T04:41:38.298Z,26.10
2022-07-31T04:44:09.894Z,26.10
2022-07-31T04:46:42.628Z,26.00
2022-07-31T04:49:16.092Z,26.00
2022-07-31T04:51:49.084Z,25.90
2022-07-31T04:54:21.201Z,25.90
2022-07-31T04:56:52.897Z,25.80
2022-07-31T04:59:59.461Z,25.80
2022-07-31T05:02:16.603Z,25.70
2022-07-31T05:04:52.443Z,25.70
2022-07-31T05:07:25.856Z,25.60
2022-07-31T05:10:01.716Z,25.60
2022-07-31T05:15:23.409Z,25.40
2022-07-31T05:20:52.324Z,25.30
2022-07-31T05:23:24.555Z,25.20
2022-07-31T05:25:58.742Z,25.20
2022-07-31T05:28:31.186Z,25.10
2022-07-31T05:31:04.290Z,25.00
2022-07-31T05:33:48.938Z,25.00
2022-07-31T05:36:30.557Z,24.90
2022-07-31T05:39:06.028Z,24.90
2022-07-31T05:41:39.792Z,24.80
2022-07-31T05:44:12.558Z,24.80
2022-07-31T05:46:44.640Z,24.70
2022-07-31T05:49:17.589Z,24.70
2022-07-31T05:51:55.283Z,24.60
2022-07-31T05:54:35.044Z,24.50
2022-07-31T05:57:09.939Z,24.50
2022-07-31T06:02:31.821Z,24.40
2022-07-31T06:05:03.032Z,24.30
2022-07-31T06:07:35.225Z,24.20
2022-07-31T06:10:08.277Z,24.20
2022-07-31T06:12:43.140Z,24.10
2022-07-31T06:15:14.830Z,24.00
2022-07-31T06:17:46.795Z,23.90
2022-07-31T06:20:18.304Z,23.90
2022-07-31T06:22:49.425Z,23.80
2022-07-31T06:25:21.030Z,23.80
2022-07-31T06:27:59.326Z,23.70
2022-07-31T06:30:32.780Z,23.70
2022-07-31T06:33:08.498Z,23.60
2022-07-31T06:35:42.592Z,23.60
2022-07-31T06:38:17.732Z,23.60
2022-07-31T06:40:48.875Z,23.50
2022-07-31T06:43:22.750Z,23.50
2022-07-31T06:45:55.535Z,23.50
2022-07-31T06:48:27.173Z,23.40
2022-07-31T06:51:29.070Z,23.40
2022-07-31T06:53:53.040Z,23.40
2022-07-31T06:56:25.249Z,23.40
2022-07-31T06:59:00.258Z,23.30
2022-07-31T07:01:31.918Z,23.30
2022-07-31T07:04:04.426Z,23.30
2022-07-31T07:06:35.530Z,23.20
2022-07-31T07:09:06.981Z,23.10
2022-07-31T07:11:38.622Z,23.10
2022-07-31T07:14:12.094Z,23.10
2022-07-31T07:16:45.888Z,23.10
2022-07-31T07:22:30.019Z,23.10
2022-07-31T07:27:53.827Z,23.00
2022-07-31T07:30:43.265Z,23.00
2022-07-31T07:44:54.843Z,22.80
2022-07-31T07:48:05.770Z,22.70
2022-07-31T07:50:21.843Z,22.70
2022-07-31T07:52:55.367Z,22.60
2022-07-31T07:55:27.291Z,22.60
2022-07-31T07:58:01.090Z,22.60
2022-07-31T08:00:33.527Z,22.50
2022-07-31T08:03:48.785Z,22.50
2022-07-31T08:06:13.498Z,22.40
2022-07-31T08:08:45.253Z,22.40
2022-07-31T08:11:17.829Z,22.40
2022-07-31T08:14:04.644Z,22.30
2022-07-31T08:16:37.754Z,22.20
2022-07-31T08:19:35.260Z,22.20
2022-07-31T08:22:10.399Z,22.10
2022-07-31T08:24:42.354Z,22.10
2022-07-31T08:27:39.487Z,22.10
2022-07-31T08:30:12.870Z,22.10
2022-07-31T08:32:45.993Z,22.10
2022-07-31T08:35:27.684Z,22.00
2022-07-31T08:38:03.834Z,21.90
2022-07-31T08:40:42.994Z,21.90
2022-07-31T08:43:59.953Z,21.80
2022-07-31T08:48:49.885Z,21.70
2022-07-31T08:51:25.768Z,21.70
2022-07-31T08:53:57.601Z,21.60
2022-07-31T08:56:29.285Z,21.60
2022-07-31T08:59:02.350Z,21.50
2022-07-31T09:01:40.005Z,21.50
2022-07-31T09:04:11.947Z,21.40
2022-07-31T09:06:47.363Z,21.40
2022-07-31T09:09:20.011Z,21.40
2022-07-31T09:11:53.593Z,21.40
2022-07-31T09:14:33.484Z,21.30
2022-07-31T09:17:06.852Z,21.30
2022-07-31T09:19:53.852Z,21.30
2022-07-31T09:22:32.304Z,21.20
2022-07-31T09:25:17.069Z,21.20
2022-07-31T09:27:49.201Z,21.20
2022-07-31T09:30:20.376Z,21.20
2022-07-31T09:32:52.001Z,21.10
2022-07-31T09:35:23.360Z,21.10
2022-07-31T09:37:58.468Z,21.00
2022-07-31T09:40:56.845Z,20.90
2022-07-31T09:43:31.702Z,20.90
2022-07-31T09:46:04.411Z,20.80
2022-07-31T09:48:36.746Z,20.80
2022-07-31T09:51:13.784Z,20.80
2022-07-31T09:53:50.943Z,20.80
2022-07-31T09:56:33.158Z,20.80
2022-07-31T09:59:05.737Z,20.80
2022-07-31T10:01:38.394Z,20.80
2022-07-31T10:04:10.532Z,20.70
2022-07-31T10:06:42.881Z,20.70
2022-07-31T10:09:16.463Z,20.60
2022-07-31T10:11:48.853Z,20.60
2022-07-31T10:14:26.794Z,20.60
2022-07-31T10:17:02.662Z,20.60
2022-07-31T10:19:38.491Z,20.50
2022-07-31T10:22:12.563Z,20.50
2022-07-31T10:24:51.270Z,20.50
2022-07-31T10:27:23.307Z,20.40
2022-07-31T10:29:55.290Z,20.40
2022-07-31T10:32:26.730Z,20.40
2022-07-31T10:34:58.663Z,20.30
2022-07-31T10:37:38.397Z,20.30
2022-07-31T10:40:23.363Z,20.30
2022-07-31T10:43:02.934Z,20.20
2022-07-31T10:45:35.568Z,20.20
2022-07-31T10:48:13.803Z,20.20
2022-07-31T10:50:45.393Z,20.10
2022-07-31T10:53:18.352Z,20.00
2022-07-31T10:56:02.504Z,20.00
2022-07-31T10:58:34.666Z,20.00
2022-07-31T11:01:09.951Z,20.00
2022-07-31T11:03:47.553Z,19.90
2022-07-31T11:06:19.571Z,19.90
2022-07-31T11:08:54.137Z,19.90
2022-07-31T11:11:38.735Z,19.90
2022-07-31T11:14:10.581Z,19.80
2022-07-31T11:16:53.445Z,19.70
2022-07-31T11:19:24.428Z,19.70
2022-07-31T11:21:58.989Z,19.70
2022-07-31T11:24:59.588Z,19.60
2022-07-31T11:27:37.057Z,19.60
2022-07-31T11:30:13.509Z,19.60
2022-07-31T11:32:50.157Z,19.50
2022-07-31T11:35:34.776Z,19.50
2022-07-31T11:38:06.102Z,19.40
2022-07-31T11:40:38.077Z,19.30
2022-07-31T11:43:30.768Z,19.30
2022-07-31T11:46:02.096Z,19.30
2022-07-31T11:48:41.003Z,19.30
2022-07-31T11:51:22.710Z,19.20
2022-07-31T11:53:57.550Z,19.20
2022-07-31T11:56:30.370Z,19.20
2022-07-31T11:59:04.153Z,19.20
2022-07-31T12:01:36.823Z,19.30
2022-07-31T12:04:19.986Z,19.20
2022-07-31T12:06:51.319Z,19.20
2022-07-31T12:10:02.425Z,19.20
2022-07-31T12:12:21.390Z,19.20
2022-07-31T12:14:55.355Z,19.10
2022-07-31T12:17:26.997Z,19.10
2022-07-31T12:19:58.268Z,19.10
2022-07-31T12:22:29.892Z,19.10
2022-07-31T12:25:09.003Z,19.00
2022-07-31T12:27:40.708Z,18.90
2022-07-31T12:30:29.902Z,18.90
2022-07-31T12:33:09.607Z,18.80
2022-07-31T12:35:55.816Z,18.90
2022-07-31T12:38:44.718Z,18.90
2022-07-31T12:41:17.598Z,18.80
2022-07-31T12:43:51.109Z,18.70
2022-07-31T12:46:39.401Z,18.70
2022-07-31T12:49:11.477Z,18.70
2022-07-31T12:51:46.999Z,18.70
2022-07-31T12:54:20.077Z,18.70
2022-07-31T12:56:53.190Z,18.70
2022-07-31T12:59:25.302Z,18.80
2022-07-31T13:01:59.977Z,18.70
2022-07-31T13:04:34.912Z,18.70
2022-07-31T13:07:06.391Z,18.70
2022-07-31T13:09:39.427Z,18.60
2022-07-31T13:12:11.553Z,18.60
2022-07-31T13:14:45.169Z,18.50
2022-07-31T13:17:18.569Z,18.50
2022-07-31T13:19:52.330Z,18.60
2022-07-31T13:22:23.674Z,18.60
2022-07-31T13:24:54.553Z,18.60
2022-07-31T13:27:25.777Z,18.60
2022-07-31T13:29:57.574Z,18.70
2022-07-31T13:32:33.058Z,18.70
2022-07-31T13:35:25.457Z,18.70
2022-07-31T13:37:56.232Z,18.70
2022-07-31T13:40:40.335Z,18.70
2022-07-31T13:43:12.493Z,18.70
2022-07-31T13:45:43.726Z,18.70
2022-07-31T13:48:17.831Z,18.70
2022-07-31T13:50:49.498Z,18.70
2022-07-31T13:53:20.599Z,18.70
2022-07-31T13:55:52.063Z,18.70
2022-07-31T13:58:23.298Z,18.70
2022-07-31T14:00:55.317Z,18.80
2022-07-31T14:03:29.317Z,18.80
2022-07-31T14:06:02.137Z,18.80
2022-07-31T14:08:49.603Z,18.90
2022-07-31T14:11:22.482Z,18.90
2022-07-31T14:14:01.861Z,19.00
2022-07-31T14:16:34.997Z,19.00
2022-07-31T14:19:08.699Z,19.00
2022-07-31T14:21:56.519Z,19.10
2022-07-31T14:24:33.511Z,19.20
2022-07-31T14:27:05.254Z,19.20
2022-07-31T14:29:36.979Z,19.30
2022-07-31T14:32:09.019Z,19.40
2022-07-31T14:34:43.196Z,19.50
2022-07-31T14:37:15.882Z,19.50
2022-07-31T14:39:47.437Z,19.60
2022-07-31T14:42:27.352Z,19.60
2022-07-31T14:44:59.809Z,19.70
2022-07-31T14:47:33.458Z,19.80
2022-07-31T14:50:12.019Z,19.90
2022-07-31T14:52:49.159Z,20.00
2022-07-31T14:55:20.499Z,20.20
2022-07-31T14:57:53.479Z,20.40
2022-07-31T15:00:25.412Z,20.80
2022-07-31T15:02:56.662Z,21.20
2022-07-31T15:06:48.809Z,21.80
2022-07-31T15:08:26.698Z,22.30
2022-07-31T15:10:58.161Z,22.50
2022-07-31T15:13:32.586Z,22.90
2022-07-31T15:16:06.478Z,22.90
2022-07-31T15:21:26.101Z,23.40
2022-07-31T15:23:57.194Z,23.20
2022-07-31T15:26:30.446Z,22.90
2022-07-31T15:29:03.183Z,22.80
2022-07-31T15:31:35.318Z,22.60
2022-07-31T15:34:07.436Z,22.60
2022-07-31T15:39:18.870Z,22.50
2022-07-31T15:41:54.429Z,22.50
2022-07-31T15:44:26.069Z,22.40
2022-07-31T15:46:57.326Z,22.40
2022-07-31T15:49:28.734Z,22.60
2022-07-31T15:52:18.562Z,22.60
2022-07-31T16:03:24.587Z,22.80
2022-07-31T16:06:27.955Z,22.80
2022-07-31T16:09:05.121Z,22.80
2022-07-31T16:19:38.908Z,23.20
2022-07-31T16:22:10.551Z,23.30
2022-07-31T16:24:41.671Z,23.40
2022-07-31T16:27:14.165Z,23.30
2022-07-31T16:29:59.655Z,23.40
2022-07-31T16:32:34.138Z,23.50
2022-07-31T16:35:10.293Z,23.60
2022-07-31T16:37:51.486Z,23.60
2022-07-31T16:40:31.857Z,23.60
2022-07-31T16:43:49.489Z,23.70
2022-07-31T16:45:56.893Z,23.80
2022-07-31T16:48:28.707Z,23.90
2022-07-31T16:54:13.004Z,24.10
2022-07-31T16:59:26.487Z,24.30
2022-07-31T17:02:01.040Z,24.50
2022-07-31T17:04:33.067Z,24.60
2022-07-31T17:07:06.479Z,24.70
2022-07-31T17:09:38.300Z,24.60
2022-07-31T17:12:10.319Z,24.70
2022-07-31T17:23:40.162Z,25.10
2022-07-31T17:26:30.398Z,25.20
2022-07-31T17:29:02.429Z,25.30
2022-07-31T17:31:33.629Z,25.40
2022-07-31T17:34:09.283Z,25.50
2022-07-31T17:36:41.142Z,25.50
2022-07-31T17:39:15.697Z,25.70
2022-07-31T17:42:00.691Z,25.70
2022-07-31T17:44:33.595Z,25.60
2022-07-31T17:50:28.843Z,25.80
2022-07-31T17:53:00.334Z,26.00
2022-07-31T17:55:33.350Z,26.00
2022-07-31T17:58:05.408Z,26.10
2022-07-31T18:00:37.955Z,26.20
2022-07-31T18:03:09.461Z,26.30
2022-07-31T18:05:40.802Z,26.40
2022-07-31T18:08:13.509Z,26.40
2022-07-31T18:10:54.223Z,26.70
2022-07-31T18:13:28.297Z,26.60
2022-07-31T18:15:59.676Z,26.60
2022-07-31T18:18:30.864Z,26.80
2022-07-31T18:21:02.374Z,26.90
2022-07-31T18:23:33.805Z,26.80
2022-07-31T18:26:07.310Z,26.70
2022-07-31T18:28:39.661Z,26.60
2022-07-31T18:31:32.353Z,26.70
2022-07-31T18:34:03.731Z,26.70
2022-07-31T18:36:37.714Z,27.00
2022-07-31T18:39:08.913Z,27.20
2022-07-31T18:41:48.611Z,27.10
2022-07-31T18:44:23.739Z,27.10
2022-07-31T18:46:57.797Z,27.20
2022-07-31T18:51:02.439Z,27.40
2022-07-31T18:52:21.556Z,27.40
2022-07-31T18:54:54.502Z,27.50
2022-07-31T18:57:29.809Z,27.70
2022-07-31T19:00:00.994Z,27.80
2022-07-31T19:02:32.631Z,27.80
2022-07-31T19:05:04.356Z,27.90
2022-07-31T19:07:38.351Z,28.10
2022-07-31T19:10:10.397Z,28.10
2022-07-31T19:13:04.133Z,28.20
2022-07-31T19:15:35.613Z,28.30
2022-07-31T19:18:08.264Z,28.40
2022-07-31T19:20:57.416Z,28.40
2022-07-31T19:23:31.184Z,28.50
2022-07-31T19:26:04.710Z,28.70
2022-07-31T19:28:39.142Z,28.70
2022-07-31T19:31:13.484Z,29.00
2022-07-31T19:33:45.261Z,29.10
2022-07-31T19:36:16.952Z,29.20
2022-07-31T19:38:48.794Z,29.30
2022-07-31T19:41:19.986Z,29.50
2022-07-31T19:43:54.391Z,29.40
2022-07-31T19:46:27.731Z,29.40
2022-07-31T19:48:59.164Z,29.50
2022-07-31T19:51:31.156Z,29.70
2022-07-31T19:54:03.171Z,29.80
2022-07-31T19:56:34.884Z,29.90
2022-07-31T19:59:09.161Z,29.90
2022-07-31T20:01:40.264Z,30.00
2022-07-31T20:04:12.015Z,30.10
2022-07-31T20:06:43.460Z,30.10
2022-07-31T20:09:16.600Z,30.00
2022-07-31T20:11:49.081Z,29.90
2022-07-31T20:14:22.303Z,30.00
2022-07-31T20:16:53.665Z,29.90
2022-07-31T20:19:25.802Z,29.90
2022-07-31T20:21:58.521Z,30.10
2022-07-31T20:24:31.648Z,30.20
2022-07-31T20:27:02.821Z,30.40
2022-07-31T20:29:37.440Z,30.60
2022-07-31T20:32:09.443Z,30.70
2022-07-31T20:34:40.668Z,30.90
2022-07-31T20:37:11.830Z,31.10
2022-07-31T20:39:43.132Z,30.80
2022-07-31T20:42:14.417Z,31.00
2022-07-31T20:44:47.635Z,31.20
2022-07-31T20:47:24.604Z,31.30
2022-07-31T20:49:56.032Z,31.50
2022-07-31T20:52:28.805Z,31.50
2022-07-31T20:54:59.562Z,31.70
2022-07-31T20:57:31.228Z,31.80
2022-07-31T21:00:05.096Z,32.10
2022-07-31T21:02:36.841Z,32.00
2022-07-31T21:05:07.984Z,32.00
2022-07-31T21:07:41.143Z,32.10
2022-07-31T21:10:13.838Z,32.40
2022-07-31T21:12:46.613Z,32.70
2022-07-31T21:15:41.914Z,32.70
2022-07-31T21:18:11.545Z,32.80
2022-07-31T21:20:51.615Z,33.00
2022-07-31T21:23:25.153Z,33.10
2022-07-31T21:25:57.465Z,33.30
2022-07-31T21:28:30.559Z,33.50
2022-07-31T21:31:06.340Z,33.60
2022-07-31T21:33:38.132Z,33.60
2022-07-31T21:36:11.269Z,33.50
2022-07-31T21:38:52.121Z,33.70
2022-07-31T21:41:23.808Z,33.90
2022-07-31T21:43:58.598Z,33.90
2022-07-31T21:46:35.991Z,33.70
2022-07-31T21:49:08.407Z,33.70
2022-07-31T21:51:40.733Z,33.80
2022-07-31T21:54:15.027Z,33.60
2022-07-31T21:56:50.534Z,33.70
2022-07-31T22:02:48.696Z,34.10
2022-07-31T22:06:14.643Z,34.20
2022-07-31T22:08:53.716Z,34.00
2022-07-31T22:11:28.511Z,34.10
2022-07-31T22:14:08.000Z,34.50
2022-07-31T22:16:41.340Z,34.70
2022-07-31T22:19:13.434Z,35.00
2022-07-31T22:21:46.073Z,35.20
2022-07-31T22:24:25.868Z,35.30
2022-07-31T22:27:16.925Z,35.00
2022-07-31T22:32:55.641Z,34.80
2022-07-31T22:35:31.631Z,35.10
2022-07-31T22:38:15.976Z,34.80
2022-07-31T22:40:50.897Z,34.90
2022-07-31T22:46:29.598Z,35.20
2022-07-31T22:49:08.921Z,35.30
2022-07-31T22:51:46.645Z,35.30
2022-07-31T22:54:18.170Z,35.30
2022-07-31T22:56:51.327Z,35.50
2022-07-31T23:02:11.558Z,35.70
2022-07-31T23:04:44.169Z,35.70
2022-07-31T23:07:15.299Z,35.90
2022-07-31T23:09:46.750Z,36.20
2022-07-31T23:12:19.685Z,35.90
2022-07-31T23:14:53.544Z,36.00
2022-07-31T23:17:24.781Z,35.80
2022-07-31T23:19:58.286Z,36.10
2022-07-31T23:22:30.790Z,36.00
2022-07-31T23:25:05.798Z,36.00
2022-07-31T23:27:39.479Z,36.30
2022-07-31T23:30:13.084Z,36.10
2022-07-31T23:32:59.248Z,36.30
2022-07-31T23:35:32.058Z,36.20
2022-07-31T23:38:03.684Z,36.60
2022-07-31T23:40:36.759Z,36.40
2022-07-31T23:43:10.350Z,36.40
2022-07-31T23:45:44.108Z,36.50
2022-07-31T23:48:16.500Z,36.50
2022-07-31T23:50:58.900Z,36.60
2022-07-31T23:53:34.626Z,36.40
2022-07-31T23:56:18.428Z,36.00
2022-07-31T23:58:55.525Z,36.00
